• Join FlightAware (Why Join?)
  • Login
  • US Flag 
 
03:41AM EST


 

Airport Tracker/Info


-or-


 

Live Flight TrackerFlight Track Log ✈ N555CP ✈ 05-Aug-2013 ✈ KRTS - KUAO

Flight Track Log - Related Links

Times and Time Zones

All times are in EDT time to prevent confusion due to time zone crossing. See the N555CP flight status page for this flight to view local times or setup timezone preferences in your user account.

Time Position Orientation Groundspeed Altitude Reporting Facility
EDT Latitude Longitude Course Direction KTS MPH feet Rate Location/Type
07:44PM 39.8497 -119.9314 329° Northwest 151 174 20,000  Level Oakland Center
07:45PM 39.8864 -119.9600 329° Northwest 150 173 20,000  Level Oakland Center
07:46PM 39.9225 -119.9861 331° Northwest 154 177 20,000  Level Oakland Center
07:47PM 39.9611 -120.0139 331° Northwest 152 175 20,000  Level Oakland Center
07:48PM 40.0003 -120.0447 329° Northwest 156 180 20,000 -1,020 Level Oakland Center
07:49PM 40.0808 -120.1705 333° Northwest  Level FlightAware Approximate
07:49PM 40.0414 -120.0744 331° Northwest 162 186 18,000  Level Oakland Center
07:50PM 40.0794 -120.1000 333° Northwest 160 184 18,000  Level Oakland Center
07:51PM 40.1197 -120.1358 326° Northwest 166 191 18,000 -1,860 Level Oakland Center
07:53PM 40.1694 -120.1117 20° North 169 194 13,300 -2,100 Descending Seattle Center
07:54PM 40.1469 -120.0903 144° Southeast 159 183 13,800 480 Climbing Oakland Center
07:55PM 40.1289 -120.1258 236° Southwest 165 190 14,100 480 Climbing Oakland Center
07:56PM 40.1683 -120.1533 332° Northwest 158 182 14,900 600 Climbing Oakland Center
07:57PM 40.2119 -120.1758 338° Northwest 160 184 15,400 420 Climbing Oakland Center
07:58PM 40.2575 -120.1967 341° North 166 191 15,800 540 Climbing Oakland Center
07:59PM 40.3044 -120.2197 339° North 173 199 16,600 600 Climbing Oakland Center
08:00PM 40.3508 -120.2414 340° North 176 203 17,100 480 Climbing Oakland Center
08:01PM 40.3981 -120.2614 342° North 177 204 17,600 300 Climbing Oakland Center
08:02PM 40.4464 -120.2864 339° North 184 212 17,800 60 Climbing Oakland Center
08:03PM 40.5083 -120.3139 341° North 193 222 17,800  Level Oakland Center
08:04PM 40.5561 -120.3353 341° North 198 228 17,800 60 Level Oakland Center
08:05PM 40.6458 -120.3781 340° North 211 243 18,000 60 Climbing Seattle Center
08:06PM 40.7036 -120.4103 337° Northwest 204 235 18,000  Level Seattle Center
08:08PM 40.7595 -120.4584 327° Northwest  Level FlightAware Approximate
08:12PM 40.9800 -120.6508 326° Northwest 166 191 18,000  Level Seattle Center
08:13PM 41.0294 -120.6953 326° Northwest 205 236 18,000  Level Seattle Center
08:14PM 41.0878 -120.7478 326° Northwest 210 242 18,000 -120 Level Seattle Center
08:15PM 41.0686 -120.7278 326° Northwest  Level FlightAware Approximate
08:15PM 41.1364 -120.7906 326° Northwest 211 243 17,800  Level Seattle Center
08:16PM 41.1125 -120.7669 326° Northwest  Level FlightAware Approximate
08:16PM 41.1836 -120.8336 326° Northwest 210 242 17,800  Level Seattle Center
08:17PM 41.1563 -120.8061 326° Northwest  Level FlightAware Approximate
08:17PM 41.2314 -120.8789 325° Northwest 207 238 17,800  Level Seattle Center
08:18PM 41.2775 -120.9214 325° Northwest 204 235 18,000 60 Climbing Seattle Center
08:19PM 41.3242 -120.9631 326° Northwest 203 234 18,000  Level Seattle Center
08:20PM 41.3697 -121.0042 326° Northwest 201 231 18,000  Level Seattle Center
08:21PM 41.4167 -121.0469 326° Northwest 203 234 18,000  Level Seattle Center
08:22PM 41.4628 -121.0892 326° Northwest 203 234 18,000  Level Seattle Center
08:23PM 41.5092 -121.1303 326° Northwest 202 232 18,000  Level Seattle Center
08:24PM 41.5575 -121.1767 324° Northwest 202 232 18,000  Level Seattle Center
08:25PM 41.6011 -121.2181 325° Northwest 203 234 18,000  Level Seattle Center
08:26PM 41.6592 -121.2667 328° Northwest 205 236 18,000  Level Seattle Center
08:27PM 41.7167 -121.2861 346° North 212 244 18,000  Level Seattle Center
08:28PM 41.7719 -121.3083 343° North 210 242 18,000  Level Seattle Center
08:30PM 41.8244 -121.3294 343° North 202 232 18,000  Level Seattle Center
08:31PM 41.8792 -121.3511 344° North 204 235 18,000  Level Seattle Center
08:32PM 41.9333 -121.3722 344° North 204 235 18,000  Level Seattle Center
08:33PM 41.9883 -121.3947 343° North 206 237 18,000  Level Seattle Center
08:34PM 42.0436 -121.4186 342° North 209 241 18,000  Level Seattle Center
08:35PM 42.0967 -121.4392 344° North 204 235 18,000  Level Seattle Center
08:36PM 42.1628 -121.4653 344° North 206 237 18,000  Level Seattle Center
08:37PM 42.2175 -121.4872 343° North 208 239 18,000  Level Seattle Center
08:38PM 42.2719 -121.5106 342° North 208 239 18,000  Level Seattle Center
08:39PM 42.3272 -121.5317 344° North 207 238 18,000  Level Seattle Center
08:40PM 42.3819 -121.5550 343° North 207 238 18,000  Level Seattle Center
08:41PM 42.4367 -121.5756 345° North 205 236 18,000  Level Seattle Center
08:42PM 42.4903 -121.5978 343° North 202 232 18,000  Level Seattle Center
08:43PM 42.5439 -121.6186 344° North 202 232 18,000  Level Seattle Center
08:44PM 42.5992 -121.6411 343° North 205 236 18,000  Level Seattle Center
08:45PM 42.6650 -121.6686 343° North 207 238 18,000  Level Seattle Center
08:46PM 42.7192 -121.6900 344° North 205 236 18,000  Level Seattle Center
08:47PM 42.7736 -121.7114 344° North 205 236 18,000  Level Seattle Center
08:48PM 42.8286 -121.7347 343° North 206 237 18,000  Level Seattle Center
08:49PM 42.8842 -121.7575 343° North 208 239 18,000  Level Seattle Center
08:50PM 42.9397 -121.7806 343° North 209 241 18,000  Level Seattle Center
08:51PM 42.9931 -121.8036 342° North 204 235 18,000  Level Seattle Center
08:52PM 43.0478 -121.8258 343° North 205 236 18,000  Level Seattle Center
08:53PM 43.1006 -121.8469 344° North 199 229 18,000  Level Seattle Center
08:54PM 43.1542 -121.8675 344° North 198 228 18,000  Level Seattle Center
08:55PM 43.2206 -121.8956 343° North 207 238 18,000  Level Seattle Center
08:56PM 43.2750 -121.9186 343° North 206 237 18,000  Level Seattle Center
08:57PM 43.3250 -121.9419 341° North 206 237 18,000  Level Seattle Center
08:58PM 43.3794 -121.9619 345° North 204 235 18,000  Level Seattle Center
08:59PM 43.4325 -121.9844 343° North 200 230 18,000  Level Seattle Center
09:00PM 43.4839 -122.0075 342° North 197 227 18,000  Level Seattle Center
09:01PM 43.5344 -122.0275 344° North 191 220 18,000  Level Seattle Center
09:02PM 43.5878 -122.0503 343° North 198 228 18,000  Level Seattle Center
09:03PM 43.6506 -122.0769 343° North 197 227 18,000  Level Seattle Center
09:04PM 43.7017 -122.0981 343° North 194 223 18,000  Level Seattle Center
09:05PM 43.7528 -122.1189 344° North 192 221 18,000  Level Seattle Center
09:06PM 43.8019 -122.1403 343° North 188 216 18,000  Level Seattle Center
09:07PM 43.8536 -122.1603 344° North 189 217 18,000  Level Seattle Center
09:08PM 43.9047 -122.1817 343° North 191 220 18,000  Level Seattle Center
09:09PM 43.9558 -122.2042 342° North 193 222 18,000  Level Seattle Center
09:10PM 44.0067 -122.2261 343° North 192 221 18,000 -180 Level Seattle Center
09:11PM 44.0567 -122.2481 342° North 192 221 17,700 -420 Descending Seattle Center
09:12PM 44.1119 -122.2706 344° North 195 224 17,200 -720 Descending Seattle Center
09:13PM 44.1681 -122.2964 342° North 204 235 16,300 -900 Descending Seattle Center
09:14PM 44.2408 -122.3269 343° North 220 253 15,400 -900 Descending Seattle Center
09:15PM 44.2944 -122.3650 333° Northwest 219 252 14,500 -780 Descending Seattle Center
09:16PM 44.3483 -122.4047 332° Northwest 219 252 13,900 -900 Descending Seattle Center
09:17PM 44.4033 -122.4428 334° Northwest 222 255 12,700 -1,500 Descending Seattle Center
09:18PM 44.4706 -122.4656 346° North 245 282 10,900 -1,620 Descending Seattle Center
09:19PM 44.5347 -122.4894 345° North 243 280 9,500 -1,440 Descending Seattle Center
09:20PM 44.5975 -122.5136 345° North 240 276 8,000 -1,200 Descending Seattle Center
09:21PM 44.6575 -122.5367 345° North 234 269 7,100 -540 Descending Seattle Center
09:22PM 44.7111 -122.5583 344° North 221 254 7,000 -60 Descending Seattle Center
09:23PM 44.7553 -122.5769 343° North 177 204 7,000 -120 Level Seattle Center
09:24PM 44.8008 -122.5939 345° North 177 204 6,800 -480 Descending Seattle Center
09:26PM 44.8633 -122.6192 344° North 188 216 6,000 -540 Descending Seattle Center
09:27PM 44.9092 -122.6389 343° North 184 212 5,800 -540 Descending Seattle Center
09:28PM 44.9528 -122.6800 326° Northwest 188 216 5,000 -600 Descending Seattle Center
09:29PM 44.9867 -122.7217 319° Northwest 186 214 4,600 -720 Descending Seattle Center
09:30PM 45.0300 -122.7650 325° Northwest 168 193 3,700 -780 Descending Seattle Center
09:31PM 45.0700 -122.8031 326° Northwest 182 209 3,100 -480 Descending Seattle Center
09:32PM 45.1142 -122.7942 North 164 189 2,700 -600 Descending Seattle Center
09:33PM 45.1519 -122.7875 North 147 169 2,000 -660 Descending Seattle Center
09:34PM 45.1803 -122.7828 North 113 130 1,400 -600 Descending Seattle Center
09:35PM 45.2111 -122.7775 North 112 129 900 -480 Descending Seattle Center
09:36PM 45.2450 -122.7708 North 113 130 500 -420 Descending Seattle Center
09:38PM 45.2471 -122.7701 341° North  Level Estimated
09:45PM 45.2471 -122.7701 341° North  Level Estimated
09:46PM 45.2471 -122.7701 341° North  Level Estimated
09:47PM 45.2471 -122.7701 341° North  Level Estimated
09:48PM 45.2471 -122.7701 341° North  Level Estimated